New York, New York
Current Conditions -  °F | °C
As of 1:51 AM on Sunday 23 Nov 2014 (Local Time) from KNYC Reporting Station
Clear Clear  
Wind Chill:   Ceiling: Unl
Heat Index:   Visibility: 10mi
Dew Point: -7°   Wind: 9mph
Humidity: 37%   Direction: 260°W
Pressure: 30.2"   Gusts: NA
Location:  40.71°N, 74.01°W
Report Text: KNYC 230651Z AUTO 26008KT 10SM CLR 07/M07 A3020 RMK AO2 SLP218 T00721067 $
Loading
Personal Weather Stations






























Interactive Weather Map New forecast layout! Learn more

10-Day Weather Forecast

Advertisements
Track Severe Weather on mobile